sensor_id;sensor_type;location;lat;lon;timestamp;P1;durP1;ratioP1;P2;durP2;ratioP2
78740;SDS011;68062;48.726;9.370;2023-06-14T00:00:41;6.17;;;5.20;;
78740;SDS011;68062;48.726;9.370;2023-06-14T00:03:08;9.03;;;5.63;;
78740;SDS011;68062;48.726;9.370;2023-06-14T00:05:37;5.23;;;4.93;;
78740;SDS011;68062;48.726;9.370;2023-06-14T00:08:08;5.77;;;5.17;;
78740;SDS011;68062;48.726;9.370;2023-06-14T00:10:35;5.67;;;5.20;;
78740;SDS011;68062;48.726;9.370;2023-06-14T00:13:01;6.30;;;5.00;;
78740;SDS011;68062;48.726;9.370;2023-06-14T00:15:30;5.07;;;4.77;;
78740;SDS011;68062;48.726;9.370;2023-06-14T00:17:58;6.00;;;5.37;;
78740;SDS011;68062;48.726;9.370;2023-06-14T00:20:26;7.97;;;6.10;;
78740;SDS011;68062;48.726;9.370;2023-06-14T00:22:53;9.00;;;4.93;;
78740;SDS011;68062;48.726;9.370;2023-06-14T00:25:20;6.93;;;5.70;;
78740;SDS011;68062;48.726;9.370;2023-06-14T00:27:46;7.53;;;5.50;;
78740;SDS011;68062;48.726;9.370;2023-06-14T00:30:14;6.77;;;5.50;;
78740;SDS011;68062;48.726;9.370;2023-06-14T00:32:42;10.47;;;6.37;;
78740;SDS011;68062;48.726;9.370;2023-06-14T00:35:09;8.00;;;5.50;;
78740;SDS011;68062;48.726;9.370;2023-06-14T00:37:36;5.90;;;4.73;;
78740;SDS011;68062;48.726;9.370;2023-06-14T00:40:03;7.17;;;5.17;;
78740;SDS011;68062;48.726;9.370;2023-06-14T00:42:30;5.07;;;4.47;;
78740;SDS011;68062;48.726;9.370;2023-06-14T00:44:57;8.27;;;4.73;;
78740;SDS011;68062;48.726;9.370;2023-06-14T00:47:24;5.60;;;5.30;;
78740;SDS011;68062;48.726;9.370;2023-06-14T00:49:53;6.70;;;6.13;;
78740;SDS011;68062;48.726;9.370;2023-06-14T00:52:21;8.73;;;5.33;;
78740;SDS011;68062;48.726;9.370;2023-06-14T00:54:50;5.70;;;5.03;;
78740;SDS011;68062;48.726;9.370;2023-06-14T00:57:17;7.87;;;5.43;;
78740;SDS011;68062;48.726;9.370;2023-06-14T00:59:44;6.40;;;5.60;;
78740;SDS011;68062;48.726;9.370;2023-06-14T01:02:12;5.10;;;4.70;;
78740;SDS011;68062;48.726;9.370;2023-06-14T01:04:40;9.03;;;6.27;;
78740;SDS011;68062;48.726;9.370;2023-06-14T01:07:15;6.70;;;5.30;;
78740;SDS011;68062;48.726;9.370;2023-06-14T01:09:53;6.67;;;5.87;;
78740;SDS011;68062;48.726;9.370;2023-06-14T01:12:31;5.80;;;5.50;;
78740;SDS011;68062;48.726;9.370;2023-06-14T01:15:03;7.50;;;5.40;;
78740;SDS011;68062;48.726;9.370;2023-06-14T01:17:30;5.70;;;5.37;;
78740;SDS011;68062;48.726;9.370;2023-06-14T01:20:00;5.83;;;5.53;;
78740;SDS011;68062;48.726;9.370;2023-06-14T01:22:36;6.60;;;5.93;;
78740;SDS011;68062;48.726;9.370;2023-06-14T01:25:05;6.97;;;5.93;;
78740;SDS011;68062;48.726;9.370;2023-06-14T01:27:32;6.60;;;6.10;;
78740;SDS011;68062;48.726;9.370;2023-06-14T01:29:59;6.00;;;5.73;;
78740;SDS011;68062;48.726;9.370;2023-06-14T01:32:27;7.97;;;5.97;;
78740;SDS011;68062;48.726;9.370;2023-06-14T01:34:55;7.40;;;6.60;;
78740;SDS011;68062;48.726;9.370;2023-06-14T01:37:22;9.23;;;6.03;;
78740;SDS011;68062;48.726;9.370;2023-06-14T01:39:49;10.03;;;6.70;;
78740;SDS011;68062;48.726;9.370;2023-06-14T01:42:19;8.70;;;6.40;;
78740;SDS011;68062;48.726;9.370;2023-06-14T01:44:47;8.37;;;6.03;;
78740;SDS011;68062;48.726;9.370;2023-06-14T01:47:14;8.10;;;6.50;;
78740;SDS011;68062;48.726;9.370;2023-06-14T01:49:41;9.30;;;7.00;;
78740;SDS011;68062;48.726;9.370;2023-06-14T01:52:08;8.60;;;6.67;;
78740;SDS011;68062;48.726;9.370;2023-06-14T01:54:35;8.23;;;6.70;;
78740;SDS011;68062;48.726;9.370;2023-06-14T01:57:07;8.00;;;5.93;;
78740;SDS011;68062;48.726;9.370;2023-06-14T01:59:36;6.33;;;5.97;;
78740;SDS011;68062;48.726;9.370;2023-06-14T02:02:02;8.20;;;6.17;;
78740;SDS011;68062;48.726;9.370;2023-06-14T02:04:31;8.20;;;6.80;;
78740;SDS011;68062;48.726;9.370;2023-06-14T02:06:58;6.73;;;5.13;;
78740;SDS011;68062;48.726;9.370;2023-06-14T02:09:25;6.57;;;6.17;;
78740;SDS011;68062;48.726;9.370;2023-06-14T02:11:53;6.00;;;5.70;;
78740;SDS011;68062;48.726;9.370;2023-06-14T02:14:20;6.00;;;5.70;;
78740;SDS011;68062;48.726;9.370;2023-06-14T02:16:49;6.60;;;6.20;;
78740;SDS011;68062;48.726;9.370;2023-06-14T02:19:16;7.30;;;6.43;;
78740;SDS011;68062;48.726;9.370;2023-06-14T02:21:43;7.00;;;5.50;;
78740;SDS011;68062;48.726;9.370;2023-06-14T02:24:11;9.40;;;6.07;;
78740;SDS011;68062;48.726;9.370;2023-06-14T02:26:38;8.20;;;6.70;;
78740;SDS011;68062;48.726;9.370;2023-06-14T02:29:06;8.77;;;6.80;;
78740;SDS011;68062;48.726;9.370;2023-06-14T02:31:35;7.50;;;5.40;;
78740;SDS011;68062;48.726;9.370;2023-06-14T02:34:04;7.00;;;5.77;;
78740;SDS011;68062;48.726;9.370;2023-06-14T02:36:30;9.30;;;7.23;;
78740;SDS011;68062;48.726;9.370;2023-06-14T02:38:59;7.97;;;6.10;;
78740;SDS011;68062;48.726;9.370;2023-06-14T02:41:26;7.37;;;6.57;;
78740;SDS011;68062;48.726;9.370;2023-06-14T02:43:53;11.20;;;7.30;;
78740;SDS011;68062;48.726;9.370;2023-06-14T02:46:21;9.70;;;6.90;;
78740;SDS011;68062;48.726;9.370;2023-06-14T02:48:48;6.40;;;6.00;;
78740;SDS011;68062;48.726;9.370;2023-06-14T02:51:16;8.90;;;6.73;;
78740;SDS011;68062;48.726;9.370;2023-06-14T02:53:43;8.10;;;5.70;;
78740;SDS011;68062;48.726;9.370;2023-06-14T02:56:10;6.23;;;5.40;;
78740;SDS011;68062;48.726;9.370;2023-06-14T02:58:37;6.47;;;5.53;;
78740;SDS011;68062;48.726;9.370;2023-06-14T03:01:05;6.87;;;6.40;;
78740;SDS011;68062;48.726;9.370;2023-06-14T03:03:34;5.90;;;4.97;;
78740;SDS011;68062;48.726;9.370;2023-06-14T03:06:02;10.13;;;5.80;;
78740;SDS011;68062;48.726;9.370;2023-06-14T03:08:33;9.77;;;6.60;;
78740;SDS011;68062;48.726;9.370;2023-06-14T03:11:07;10.53;;;7.00;;
78740;SDS011;68062;48.726;9.370;2023-06-14T03:13:35;5.80;;;5.50;;
78740;SDS011;68062;48.726;9.370;2023-06-14T03:16:04;9.27;;;6.73;;
78740;SDS011;68062;48.726;9.370;2023-06-14T03:18:34;9.90;;;6.43;;
78740;SDS011;68062;48.726;9.370;2023-06-14T03:21:02;7.07;;;6.67;;
78740;SDS011;68062;48.726;9.370;2023-06-14T03:23:30;9.07;;;6.50;;
78740;SDS011;68062;48.726;9.370;2023-06-14T03:25:58;18.37;;;6.83;;
78740;SDS011;68062;48.726;9.370;2023-06-14T03:28:26;10.00;;;7.03;;
78740;SDS011;68062;48.726;9.370;2023-06-14T03:30:54;8.30;;;6.13;;
78740;SDS011;68062;48.726;9.370;2023-06-14T03:33:21;8.27;;;6.13;;
78740;SDS011;68062;48.726;9.370;2023-06-14T03:35:50;12.37;;;6.67;;
78740;SDS011;68062;48.726;9.370;2023-06-14T03:38:17;8.30;;;6.67;;
78740;SDS011;68062;48.726;9.370;2023-06-14T03:40:44;7.30;;;6.30;;
78740;SDS011;68062;48.726;9.370;2023-06-14T03:43:13;7.47;;;6.47;;
78740;SDS011;68062;48.726;9.370;2023-06-14T03:45:41;10.60;;;7.00;;
78740;SDS011;68062;48.726;9.370;2023-06-14T03:48:08;11.00;;;7.27;;
78740;SDS011;68062;48.726;9.370;2023-06-14T03:50:36;9.10;;;7.23;;
78740;SDS011;68062;48.726;9.370;2023-06-14T03:53:06;6.87;;;6.03;;
78740;SDS011;68062;48.726;9.370;2023-06-14T03:55:33;12.17;;;7.90;;
78740;SDS011;68062;48.726;9.370;2023-06-14T03:58:00;9.33;;;6.87;;
78740;SDS011;68062;48.726;9.370;2023-06-14T04:00:29;13.50;;;7.50;;
78740;SDS011;68062;48.726;9.370;2023-06-14T04:02:57;11.93;;;6.70;;
78740;SDS011;68062;48.726;9.370;2023-06-14T04:05:24;9.37;;;7.33;;
78740;SDS011;68062;48.726;9.370;2023-06-14T04:07:53;10.47;;;7.37;;
78740;SDS011;68062;48.726;9.370;2023-06-14T04:10:21;9.00;;;7.00;;
78740;SDS011;68062;48.726;9.370;2023-06-14T04:12:48;7.80;;;6.80;;
78740;SDS011;68062;48.726;9.370;2023-06-14T04:15:16;7.07;;;6.17;;
78740;SDS011;68062;48.726;9.370;2023-06-14T04:17:45;9.57;;;7.37;;
78740;SDS011;68062;48.726;9.370;2023-06-14T04:20:12;10.40;;;7.30;;
78740;SDS011;68062;48.726;9.370;2023-06-14T04:22:38;8.87;;;6.93;;
78740;SDS011;68062;48.726;9.370;2023-06-14T04:25:06;11.10;;;7.10;;
78740;SDS011;68062;48.726;9.370;2023-06-14T04:27:34;10.03;;;7.00;;
78740;SDS011;68062;48.726;9.370;2023-06-14T04:30:03;8.43;;;8.00;;
78740;SDS011;68062;48.726;9.370;2023-06-14T04:32:45;8.37;;;6.87;;
78740;SDS011;68062;48.726;9.370;2023-06-14T04:35:12;7.87;;;6.20;;
78740;SDS011;68062;48.726;9.370;2023-06-14T04:37:42;9.70;;;7.00;;
78740;SDS011;68062;48.726;9.370;2023-06-14T04:40:11;8.37;;;7.27;;
78740;SDS011;68062;48.726;9.370;2023-06-14T04:42:39;7.87;;;6.40;;
78740;SDS011;68062;48.726;9.370;2023-06-14T04:45:08;11.47;;;7.70;;
78740;SDS011;68062;48.726;9.370;2023-06-14T04:47:37;10.67;;;6.80;;
78740;SDS011;68062;48.726;9.370;2023-06-14T04:50:07;13.27;;;8.83;;
78740;SDS011;68062;48.726;9.370;2023-06-14T04:52:35;9.47;;;7.80;;
78740;SDS011;68062;48.726;9.370;2023-06-14T04:55:04;9.07;;;7.20;;
78740;SDS011;68062;48.726;9.370;2023-06-14T04:57:31;11.50;;;7.00;;
78740;SDS011;68062;48.726;9.370;2023-06-14T04:59:59;11.43;;;6.93;;
78740;SDS011;68062;48.726;9.370;2023-06-14T05:02:27;8.10;;;7.23;;
78740;SDS011;68062;48.726;9.370;2023-06-14T05:04:56;9.23;;;6.43;;
78740;SDS011;68062;48.726;9.370;2023-06-14T05:07:24;10.20;;;7.20;;
78740;SDS011;68062;48.726;9.370;2023-06-14T05:09:51;7.90;;;7.13;;
78740;SDS011;68062;48.726;9.370;2023-06-14T05:12:18;8.43;;;6.23;;
78740;SDS011;68062;48.726;9.370;2023-06-14T05:14:46;7.60;;;7.20;;
78740;SDS011;68062;48.726;9.370;2023-06-14T05:17:14;8.73;;;6.70;;
78740;SDS011;68062;48.726;9.370;2023-06-14T05:19:42;9.37;;;6.80;;
78740;SDS011;68062;48.726;9.370;2023-06-14T05:22:09;7.63;;;6.40;;
78740;SDS011;68062;48.726;9.370;2023-06-14T05:24:37;8.30;;;6.67;;
78740;SDS011;68062;48.726;9.370;2023-06-14T05:27:04;8.80;;;5.40;;
78740;SDS011;68062;48.726;9.370;2023-06-14T05:29:31;9.23;;;6.63;;
78740;SDS011;68062;48.726;9.370;2023-06-14T05:31:58;7.47;;;6.90;;
78740;SDS011;68062;48.726;9.370;2023-06-14T05:34:25;10.50;;;7.60;;
78740;SDS011;68062;48.726;9.370;2023-06-14T05:36:52;13.43;;;7.90;;
78740;SDS011;68062;48.726;9.370;2023-06-14T05:39:18;14.33;;;7.30;;
78740;SDS011;68062;48.726;9.370;2023-06-14T05:41:47;12.20;;;8.07;;
78740;SDS011;68062;48.726;9.370;2023-06-14T05:44:13;10.67;;;8.00;;
78740;SDS011;68062;48.726;9.370;2023-06-14T05:46:41;10.07;;;6.87;;
78740;SDS011;68062;48.726;9.370;2023-06-14T05:49:07;9.93;;;6.67;;
78740;SDS011;68062;48.726;9.370;2023-06-14T05:51:34;9.47;;;7.53;;
78740;SDS011;68062;48.726;9.370;2023-06-14T05:54:01;9.90;;;7.73;;
78740;SDS011;68062;48.726;9.370;2023-06-14T05:56:28;8.20;;;7.80;;
78740;SDS011;68062;48.726;9.370;2023-06-14T05:58:56;11.00;;;7.73;;
78740;SDS011;68062;48.726;9.370;2023-06-14T06:01:23;11.00;;;8.03;;
78740;SDS011;68062;48.726;9.370;2023-06-14T06:03:51;11.67;;;8.00;;
78740;SDS011;68062;48.726;9.370;2023-06-14T06:06:17;11.40;;;8.30;;
78740;SDS011;68062;48.726;9.370;2023-06-14T06:08:44;12.83;;;7.87;;
78740;SDS011;68062;48.726;9.370;2023-06-14T06:11:11;14.13;;;9.53;;
78740;SDS011;68062;48.726;9.370;2023-06-14T06:13:37;10.07;;;7.90;;
78740;SDS011;68062;48.726;9.370;2023-06-14T06:16:07;8.63;;;7.30;;
78740;SDS011;68062;48.726;9.370;2023-06-14T06:18:34;10.33;;;7.70;;
78740;SDS011;68062;48.726;9.370;2023-06-14T06:21:02;8.93;;;7.77;;
78740;SDS011;68062;48.726;9.370;2023-06-14T06:23:30;13.23;;;7.73;;
78740;SDS011;68062;48.726;9.370;2023-06-14T06:25:56;10.50;;;7.97;;
78740;SDS011;68062;48.726;9.370;2023-06-14T06:28:23;8.93;;;8.50;;
78740;SDS011;68062;48.726;9.370;2023-06-14T06:30:50;12.70;;;8.47;;
78740;SDS011;68062;48.726;9.370;2023-06-14T06:33:19;12.10;;;8.50;;
78740;SDS011;68062;48.726;9.370;2023-06-14T06:35:45;10.70;;;8.70;;
78740;SDS011;68062;48.726;9.370;2023-06-14T06:38:12;8.97;;;8.10;;
78740;SDS011;68062;48.726;9.370;2023-06-14T06:40:39;12.43;;;8.60;;
78740;SDS011;68062;48.726;9.370;2023-06-14T06:43:06;10.70;;;8.40;;
78740;SDS011;68062;48.726;9.370;2023-06-14T06:45:40;8.03;;;7.63;;
78740;SDS011;68062;48.726;9.370;2023-06-14T06:48:07;10.17;;;8.37;;
78740;SDS011;68062;48.726;9.370;2023-06-14T06:50:36;13.20;;;8.37;;
78740;SDS011;68062;48.726;9.370;2023-06-14T06:53:03;9.37;;;7.63;;
78740;SDS011;68062;48.726;9.370;2023-06-14T06:55:32;9.40;;;7.10;;
78740;SDS011;68062;48.726;9.370;2023-06-14T06:57:59;10.43;;;6.97;;
78740;SDS011;68062;48.726;9.370;2023-06-14T07:00:26;8.67;;;7.50;;
78740;SDS011;68062;48.726;9.370;2023-06-14T07:02:53;9.23;;;7.57;;
78740;SDS011;68062;48.726;9.370;2023-06-14T07:05:20;8.67;;;7.00;;
78740;SDS011;68062;48.726;9.370;2023-06-14T07:07:48;15.50;;;7.63;;
78740;SDS011;68062;48.726;9.370;2023-06-14T07:10:14;8.70;;;6.83;;
78740;SDS011;68062;48.726;9.370;2023-06-14T07:12:42;8.00;;;6.63;;
78740;SDS011;68062;48.726;9.370;2023-06-14T07:15:09;8.33;;;6.27;;
78740;SDS011;68062;48.726;9.370;2023-06-14T07:17:36;9.67;;;7.67;;
78740;SDS011;68062;48.726;9.370;2023-06-14T07:20:03;8.43;;;5.77;;
78740;SDS011;68062;48.726;9.370;2023-06-14T07:22:37;6.30;;;5.83;;
78740;SDS011;68062;48.726;9.370;2023-06-14T07:25:06;9.93;;;7.57;;
78740;SDS011;68062;48.726;9.370;2023-06-14T07:27:33;6.43;;;5.60;;
78740;SDS011;68062;48.726;9.370;2023-06-14T07:30:00;6.37;;;6.00;;
78740;SDS011;68062;48.726;9.370;2023-06-14T07:32:27;5.90;;;5.50;;
78740;SDS011;68062;48.726;9.370;2023-06-14T07:34:54;9.33;;;6.50;;
78740;SDS011;68062;48.726;9.370;2023-06-14T07:37:20;8.23;;;5.90;;
78740;SDS011;68062;48.726;9.370;2023-06-14T07:39:47;6.97;;;5.50;;
78740;SDS011;68062;48.726;9.370;2023-06-14T07:42:15;6.93;;;5.20;;
78740;SDS011;68062;48.726;9.370;2023-06-14T07:44:42;5.97;;;5.27;;
78740;SDS011;68062;48.726;9.370;2023-06-14T07:47:08;4.67;;;4.37;;
78740;SDS011;68062;48.726;9.370;2023-06-14T07:49:35;7.70;;;4.60;;
78740;SDS011;68062;48.726;9.370;2023-06-14T07:52:01;5.33;;;5.10;;
78740;SDS011;68062;48.726;9.370;2023-06-14T07:54:29;5.10;;;3.80;;
78740;SDS011;68062;48.726;9.370;2023-06-14T07:56:57;8.10;;;7.70;;
78740;SDS011;68062;48.726;9.370;2023-06-14T07:59:26;6.33;;;4.80;;
78740;SDS011;68062;48.726;9.370;2023-06-14T08:01:53;5.47;;;4.80;;
78740;SDS011;68062;48.726;9.370;2023-06-14T08:04:20;6.60;;;5.60;;
78740;SDS011;68062;48.726;9.370;2023-06-14T08:06:47;4.77;;;4.53;;
78740;SDS011;68062;48.726;9.370;2023-06-14T08:09:14;5.13;;;4.90;;
78740;SDS011;68062;48.726;9.370;2023-06-14T08:11:41;8.13;;;4.73;;
78740;SDS011;68062;48.726;9.370;2023-06-14T08:14:08;6.93;;;5.17;;
78740;SDS011;68062;48.726;9.370;2023-06-14T08:16:36;6.13;;;5.17;;
78740;SDS011;68062;48.726;9.370;2023-06-14T08:19:03;5.20;;;4.60;;
78740;SDS011;68062;48.726;9.370;2023-06-14T08:21:30;4.80;;;4.50;;
78740;SDS011;68062;48.726;9.370;2023-06-14T08:23:58;4.60;;;4.30;;
78740;SDS011;68062;48.726;9.370;2023-06-14T08:26:25;5.60;;;4.43;;
78740;SDS011;68062;48.726;9.370;2023-06-14T08:28:54;6.07;;;4.77;;
78740;SDS011;68062;48.726;9.370;2023-06-14T08:31:20;5.07;;;4.77;;
78740;SDS011;68062;48.726;9.370;2023-06-14T08:33:48;5.50;;;4.70;;
78740;SDS011;68062;48.726;9.370;2023-06-14T08:36:15;4.93;;;4.40;;
78740;SDS011;68062;48.726;9.370;2023-06-14T08:38:42;6.10;;;4.43;;
78740;SDS011;68062;48.726;9.370;2023-06-14T08:41:09;4.70;;;4.43;;
78740;SDS011;68062;48.726;9.370;2023-06-14T08:43:39;7.10;;;5.60;;
78740;SDS011;68062;48.726;9.370;2023-06-14T08:46:06;5.20;;;4.90;;
78740;SDS011;68062;48.726;9.370;2023-06-14T08:48:34;10.77;;;5.37;;
78740;SDS011;68062;48.726;9.370;2023-06-14T08:51:02;4.73;;;4.43;;
78740;SDS011;68062;48.726;9.370;2023-06-14T08:53:30;5.43;;;5.17;;
78740;SDS011;68062;48.726;9.370;2023-06-14T08:55:59;9.37;;;5.67;;
78740;SDS011;68062;48.726;9.370;2023-06-14T08:58:27;5.57;;;4.50;;
78740;SDS011;68062;48.726;9.370;2023-06-14T09:00:54;5.03;;;4.73;;
78740;SDS011;68062;48.726;9.370;2023-06-14T09:03:21;5.77;;;5.43;;
78740;SDS011;68062;48.726;9.370;2023-06-14T09:05:55;5.13;;;4.83;;
78740;SDS011;68062;48.726;9.370;2023-06-14T09:08:25;6.00;;;5.73;;
78740;SDS011;68062;48.726;9.370;2023-06-14T09:10:52;6.70;;;4.60;;
78740;SDS011;68062;48.726;9.370;2023-06-14T09:13:19;6.10;;;5.20;;
78740;SDS011;68062;48.726;9.370;2023-06-14T09:15:46;6.70;;;5.10;;
78740;SDS011;68062;48.726;9.370;2023-06-14T09:18:12;7.70;;;5.70;;
78740;SDS011;68062;48.726;9.370;2023-06-14T09:20:39;9.37;;;4.67;;
78740;SDS011;68062;48.726;9.370;2023-06-14T09:23:07;8.70;;;5.30;;
78740;SDS011;68062;48.726;9.370;2023-06-14T09:25:42;5.70;;;5.40;;
78740;SDS011;68062;48.726;9.370;2023-06-14T09:28:09;6.03;;;5.80;;
78740;SDS011;68062;48.726;9.370;2023-06-14T09:30:36;7.10;;;4.50;;
78740;SDS011;68062;48.726;9.370;2023-06-14T09:33:03;5.67;;;4.60;;
78740;SDS011;68062;48.726;9.370;2023-06-14T09:35:31;5.40;;;4.93;;
78740;SDS011;68062;48.726;9.370;2023-06-14T09:37:58;6.57;;;6.10;;
78740;SDS011;68062;48.726;9.370;2023-06-14T09:40:24;5.53;;;5.23;;
78740;SDS011;68062;48.726;9.370;2023-06-14T09:42:52;5.10;;;4.83;;
78740;SDS011;68062;48.726;9.370;2023-06-14T09:45:20;5.50;;;5.20;;
78740;SDS011;68062;48.726;9.370;2023-06-14T09:47:48;14.70;;;4.57;;
78740;SDS011;68062;48.726;9.370;2023-06-14T09:50:15;4.77;;;4.03;;
78740;SDS011;68062;48.726;9.370;2023-06-14T09:52:42;4.90;;;4.60;;
78740;SDS011;68062;48.726;9.370;2023-06-14T09:55:11;4.97;;;4.13;;
78740;SDS011;68062;48.726;9.370;2023-06-14T09:57:40;5.40;;;4.30;;
78740;SDS011;68062;48.726;9.370;2023-06-14T10:00:11;4.63;;;4.33;;
78740;SDS011;68062;48.726;9.370;2023-06-14T10:02:41;6.97;;;4.83;;
78740;SDS011;68062;48.726;9.370;2023-06-14T10:05:14;5.17;;;4.90;;
78740;SDS011;68062;48.726;9.370;2023-06-14T10:07:42;5.17;;;4.93;;
78740;SDS011;68062;48.726;9.370;2023-06-14T10:10:17;5.10;;;4.80;;
78740;SDS011;68062;48.726;9.370;2023-06-14T10:12:44;6.43;;;5.20;;
78740;SDS011;68062;48.726;9.370;2023-06-14T10:15:14;5.07;;;4.80;;
78740;SDS011;68062;48.726;9.370;2023-06-14T10:17:46;4.83;;;4.10;;
78740;SDS011;68062;48.726;9.370;2023-06-14T10:20:20;4.87;;;4.57;;
78740;SDS011;68062;48.726;9.370;2023-06-14T10:22:58;5.57;;;4.57;;
78740;SDS011;68062;48.726;9.370;2023-06-14T10:25:28;5.33;;;5.03;;
78740;SDS011;68062;48.726;9.370;2023-06-14T10:28:02;4.57;;;4.27;;
78740;SDS011;68062;48.726;9.370;2023-06-14T10:31:04;7.03;;;5.03;;
78740;SDS011;68062;48.726;9.370;2023-06-14T10:33:32;8.20;;;4.57;;
78740;SDS011;68062;48.726;9.370;2023-06-14T10:39:00;5.77;;;5.47;;
78740;SDS011;68062;48.726;9.370;2023-06-14T10:41:31;5.40;;;4.53;;
78740;SDS011;68062;48.726;9.370;2023-06-14T10:44:10;5.07;;;4.77;;
78740;SDS011;68062;48.726;9.370;2023-06-14T10:46:54;7.03;;;4.40;;
78740;SDS011;68062;48.726;9.370;2023-06-14T10:49:37;5.90;;;4.70;;
78740;SDS011;68062;48.726;9.370;2023-06-14T10:52:10;4.97;;;4.67;;
78740;SDS011;68062;48.726;9.370;2023-06-14T10:57:36;6.07;;;4.63;;
78740;SDS011;68062;48.726;9.370;2023-06-14T11:00:04;7.13;;;4.80;;
78740;SDS011;68062;48.726;9.370;2023-06-14T11:06:08;4.67;;;4.37;;
78740;SDS011;68062;48.726;9.370;2023-06-14T11:11:46;5.50;;;4.77;;
78740;SDS011;68062;48.726;9.370;2023-06-14T11:14:15;5.07;;;4.60;;
78740;SDS011;68062;48.726;9.370;2023-06-14T11:16:47;4.47;;;4.17;;
78740;SDS011;68062;48.726;9.370;2023-06-14T11:19:14;5.83;;;4.23;;
78740;SDS011;68062;48.726;9.370;2023-06-14T11:21:46;7.13;;;4.63;;
78740;SDS011;68062;48.726;9.370;2023-06-14T11:26:41;4.43;;;4.17;;
78740;SDS011;68062;48.726;9.370;2023-06-14T11:29:07;5.50;;;4.80;;
78740;SDS011;68062;48.726;9.370;2023-06-14T11:31:34;4.93;;;4.63;;
78740;SDS011;68062;48.726;9.370;2023-06-14T11:34:01;5.10;;;4.87;;
78740;SDS011;68062;48.726;9.370;2023-06-14T11:36:29;5.00;;;4.70;;
78740;SDS011;68062;48.726;9.370;2023-06-14T11:38:59;4.70;;;4.40;;
78740;SDS011;68062;48.726;9.370;2023-06-14T11:41:31;4.70;;;4.40;;
78740;SDS011;68062;48.726;9.370;2023-06-14T11:44:00;5.20;;;4.80;;
78740;SDS011;68062;48.726;9.370;2023-06-14T11:46:27;4.63;;;4.33;;
78740;SDS011;68062;48.726;9.370;2023-06-14T11:48:54;6.27;;;5.03;;
78740;SDS011;68062;48.726;9.370;2023-06-14T11:51:21;4.77;;;4.07;;
78740;SDS011;68062;48.726;9.370;2023-06-14T11:53:48;5.43;;;4.47;;
78740;SDS011;68062;48.726;9.370;2023-06-14T11:56:16;7.40;;;4.80;;
78740;SDS011;68062;48.726;9.370;2023-06-14T11:58:43;5.00;;;4.17;;
78740;SDS011;68062;48.726;9.370;2023-06-14T12:01:14;8.53;;;4.90;;
78740;SDS011;68062;48.726;9.370;2023-06-14T12:03:46;6.03;;;4.97;;
78740;SDS011;68062;48.726;9.370;2023-06-14T12:06:16;8.70;;;3.97;;
78740;SDS011;68062;48.726;9.370;2023-06-14T12:08:55;4.97;;;4.67;;
78740;SDS011;68062;48.726;9.370;2023-06-14T12:11:24;5.90;;;4.70;;
78740;SDS011;68062;48.726;9.370;2023-06-14T12:13:58;4.67;;;4.37;;
78740;SDS011;68062;48.726;9.370;2023-06-14T12:16:29;4.30;;;4.00;;
78740;SDS011;68062;48.726;9.370;2023-06-14T12:18:59;7.10;;;5.13;;
78740;SDS011;68062;48.726;9.370;2023-06-14T12:21:27;4.37;;;4.10;;
78740;SDS011;68062;48.726;9.370;2023-06-14T12:23:54;5.27;;;4.97;;
78740;SDS011;68062;48.726;9.370;2023-06-14T12:26:21;4.23;;;3.90;;
78740;SDS011;68062;48.726;9.370;2023-06-14T12:28:53;4.93;;;4.63;;
78740;SDS011;68062;48.726;9.370;2023-06-14T12:31:20;5.60;;;4.73;;
78740;SDS011;68062;48.726;9.370;2023-06-14T12:33:47;4.57;;;4.27;;
78740;SDS011;68062;48.726;9.370;2023-06-14T12:36:14;4.37;;;4.07;;
78740;SDS011;68062;48.726;9.370;2023-06-14T12:38:42;5.30;;;4.20;;
78740;SDS011;68062;48.726;9.370;2023-06-14T12:41:09;5.67;;;3.93;;
78740;SDS011;68062;48.726;9.370;2023-06-14T12:43:37;5.07;;;4.77;;
78740;SDS011;68062;48.726;9.370;2023-06-14T12:46:03;5.10;;;4.13;;
78740;SDS011;68062;48.726;9.370;2023-06-14T12:48:30;6.80;;;6.10;;
78740;SDS011;68062;48.726;9.370;2023-06-14T12:50:57;3.97;;;3.77;;
78740;SDS011;68062;48.726;9.370;2023-06-14T12:53:24;12.03;;;4.20;;
78740;SDS011;68062;48.726;9.370;2023-06-14T12:55:51;4.70;;;4.40;;
78740;SDS011;68062;48.726;9.370;2023-06-14T12:58:18;4.87;;;4.47;;
78740;SDS011;68062;48.726;9.370;2023-06-14T13:00:46;5.50;;;4.30;;
78740;SDS011;68062;48.726;9.370;2023-06-14T13:03:13;5.10;;;4.80;;
78740;SDS011;68062;48.726;9.370;2023-06-14T13:05:40;5.00;;;4.67;;
78740;SDS011;68062;48.726;9.370;2023-06-14T13:08:08;5.17;;;4.87;;
78740;SDS011;68062;48.726;9.370;2023-06-14T13:10:35;5.87;;;4.40;;
78740;SDS011;68062;48.726;9.370;2023-06-14T13:13:01;6.33;;;4.50;;
78740;SDS011;68062;48.726;9.370;2023-06-14T13:15:28;4.47;;;4.13;;
78740;SDS011;68062;48.726;9.370;2023-06-14T13:17:56;5.17;;;4.87;;
78740;SDS011;68062;48.726;9.370;2023-06-14T13:20:23;4.80;;;4.50;;
78740;SDS011;68062;48.726;9.370;2023-06-14T13:22:50;4.13;;;3.83;;
78740;SDS011;68062;48.726;9.370;2023-06-14T13:25:17;4.37;;;4.07;;
78740;SDS011;68062;48.726;9.370;2023-06-14T13:27:44;4.93;;;4.27;;
78740;SDS011;68062;48.726;9.370;2023-06-14T13:30:11;4.10;;;3.90;;
78740;SDS011;68062;48.726;9.370;2023-06-14T13:32:38;5.37;;;4.27;;
78740;SDS011;68062;48.726;9.370;2023-06-14T13:35:06;4.80;;;4.50;;
78740;SDS011;68062;48.726;9.370;2023-06-14T13:37:33;4.67;;;4.37;;
78740;SDS011;68062;48.726;9.370;2023-06-14T13:40:00;5.40;;;4.20;;
78740;SDS011;68062;48.726;9.370;2023-06-14T13:42:27;4.07;;;3.87;;
78740;SDS011;68062;48.726;9.370;2023-06-14T13:44:56;5.57;;;4.20;;
78740;SDS011;68062;48.726;9.370;2023-06-14T13:47:23;4.83;;;4.57;;
78740;SDS011;68062;48.726;9.370;2023-06-14T13:49:50;4.50;;;4.20;;
78740;SDS011;68062;48.726;9.370;2023-06-14T13:52:19;5.20;;;4.00;;
78740;SDS011;68062;48.726;9.370;2023-06-14T13:54:45;6.40;;;4.77;;
78740;SDS011;68062;48.726;9.370;2023-06-14T13:57:12;4.17;;;3.93;;
78740;SDS011;68062;48.726;9.370;2023-06-14T13:59:39;4.53;;;4.27;;
78740;SDS011;68062;48.726;9.370;2023-06-14T14:02:06;5.00;;;4.70;;
78740;SDS011;68062;48.726;9.370;2023-06-14T14:04:33;4.83;;;4.60;;
78740;SDS011;68062;48.726;9.370;2023-06-14T14:07:01;4.07;;;3.87;;
78740;SDS011;68062;48.726;9.370;2023-06-14T14:09:29;4.63;;;4.20;;
78740;SDS011;68062;48.726;9.370;2023-06-14T14:11:57;5.20;;;4.43;;
78740;SDS011;68062;48.726;9.370;2023-06-14T14:14:24;4.50;;;4.20;;
78740;SDS011;68062;48.726;9.370;2023-06-14T14:16:52;5.20;;;4.60;;
78740;SDS011;68062;48.726;9.370;2023-06-14T14:19:20;4.53;;;4.23;;
78740;SDS011;68062;48.726;9.370;2023-06-14T14:21:47;4.47;;;4.17;;
78740;SDS011;68062;48.726;9.370;2023-06-14T14:24:14;5.80;;;4.20;;
78740;SDS011;68062;48.726;9.370;2023-06-14T14:26:42;4.47;;;4.17;;
78740;SDS011;68062;48.726;9.370;2023-06-14T14:29:09;5.00;;;4.57;;
78740;SDS011;68062;48.726;9.370;2023-06-14T14:31:37;5.27;;;4.87;;
78740;SDS011;68062;48.726;9.370;2023-06-14T14:34:03;6.20;;;3.90;;
78740;SDS011;68062;48.726;9.370;2023-06-14T14:36:30;5.00;;;4.53;;
78740;SDS011;68062;48.726;9.370;2023-06-14T14:38:58;5.03;;;4.73;;
78740;SDS011;68062;48.726;9.370;2023-06-14T14:41:24;4.50;;;4.23;;
78740;SDS011;68062;48.726;9.370;2023-06-14T14:43:53;4.80;;;4.50;;
78740;SDS011;68062;48.726;9.370;2023-06-14T14:46:19;4.80;;;4.50;;
78740;SDS011;68062;48.726;9.370;2023-06-14T14:48:46;7.40;;;4.07;;
78740;SDS011;68062;48.726;9.370;2023-06-14T14:51:13;5.20;;;4.90;;
78740;SDS011;68062;48.726;9.370;2023-06-14T14:53:40;4.07;;;3.87;;
78740;SDS011;68062;48.726;9.370;2023-06-14T14:56:07;4.80;;;4.50;;
78740;SDS011;68062;48.726;9.370;2023-06-14T14:58:34;5.27;;;4.53;;
78740;SDS011;68062;48.726;9.370;2023-06-14T15:01:02;4.80;;;3.90;;
78740;SDS011;68062;48.726;9.370;2023-06-14T15:03:28;4.37;;;4.13;;
78740;SDS011;68062;48.726;9.370;2023-06-14T15:05:55;4.60;;;4.30;;